createdAt,value
2018-08-03T00:02:12.774Z,9.17
2018-08-03T00:04:40.047Z,9.50
2018-08-03T00:07:07.510Z,9.80
2018-08-03T00:09:34.791Z,10.97
2018-08-03T00:12:02.059Z,9.90
2018-08-03T00:14:29.359Z,9.73
2018-08-03T00:16:58.268Z,8.60
2018-08-03T00:22:15.650Z,9.13
2018-08-03T00:24:42.902Z,9.60
2018-08-03T00:27:10.166Z,9.43
2018-08-03T00:29:37.483Z,9.80
2018-08-03T00:32:07.730Z,9.03
2018-08-03T00:34:35.005Z,9.67
2018-08-03T00:37:02.256Z,9.20
2018-08-03T00:39:39.304Z,9.47
2018-08-03T00:42:06.555Z,9.50
2018-08-03T00:44:33.850Z,9.07
2018-08-03T00:47:01.124Z,9.27
2018-08-03T00:49:28.407Z,9.10
2018-08-03T00:51:55.620Z,8.60
2018-08-03T00:54:22.915Z,9.07
2018-08-03T00:56:50.214Z,9.33
2018-08-03T00:59:17.513Z,9.53
2018-08-03T01:01:44.791Z,8.90
2018-08-03T01:04:12.093Z,8.10
2018-08-03T01:06:39.359Z,8.77
2018-08-03T01:09:08.790Z,9.27
2018-08-03T01:11:36.088Z,9.17
2018-08-03T01:14:03.379Z,8.70
2018-08-03T01:16:34.407Z,8.87
2018-08-03T01:19:01.666Z,9.63
2018-08-03T01:21:28.901Z,10.43
2018-08-03T01:26:30.209Z,8.83
2018-08-03T01:28:57.516Z,9.07
2018-08-03T01:31:24.789Z,9.30
2018-08-03T01:33:52.038Z,9.40
2018-08-03T01:36:19.439Z,9.13
2018-08-03T01:38:46.671Z,8.90
2018-08-03T01:41:13.933Z,9.13
2018-08-03T01:43:41.202Z,9.43
2018-08-03T01:46:08.430Z,9.87
2018-08-03T01:48:35.738Z,9.37
2018-08-03T01:51:03.047Z,8.83
2018-08-03T01:53:30.281Z,9.40
2018-08-03T01:55:57.620Z,8.80
2018-08-03T01:58:24.886Z,9.27
2018-08-03T02:00:52.135Z,9.73
2018-08-03T02:03:19.506Z,8.57
2018-08-03T02:05:46.718Z,11.27
2018-08-03T02:08:24.786Z,9.50
2018-08-03T02:11:03.222Z,10.03
2018-08-03T02:13:41.242Z,8.80
2018-08-03T02:16:08.488Z,10.17
2018-08-03T02:18:35.744Z,10.77
2018-08-03T02:21:03.124Z,10.30
2018-08-03T02:23:30.415Z,11.57
2018-08-03T02:25:57.695Z,11.43
2018-08-03T02:28:24.944Z,11.00
2018-08-03T02:30:52.213Z,9.47
2018-08-03T02:33:19.443Z,10.07
2018-08-03T02:35:46.708Z,10.10
2018-08-03T02:38:13.939Z,10.67
2018-08-03T02:40:41.802Z,11.50
2018-08-03T02:43:09.042Z,10.43
2018-08-03T02:45:36.318Z,10.60
2018-08-03T02:48:03.586Z,11.03
2018-08-03T02:50:30.874Z,11.87
2018-08-03T02:52:58.128Z,11.83
2018-08-03T02:55:25.379Z,10.77
2018-08-03T02:57:52.598Z,12.37
2018-08-03T03:00:19.878Z,15.60
2018-08-03T03:02:47.275Z,13.90
2018-08-03T03:05:14.692Z,12.80
2018-08-03T03:07:41.941Z,12.13
2018-08-03T03:10:09.225Z,12.80
2018-08-03T03:12:36.491Z,15.90
2018-08-03T03:15:04.651Z,18.03
2018-08-03T03:17:34.443Z,18.13
2018-08-03T03:20:03.006Z,16.67
2018-08-03T03:22:31.552Z,17.77
2018-08-03T03:24:59.042Z,17.67
2018-08-03T03:27:26.330Z,12.37
2018-08-03T03:29:53.682Z,13.27
2018-08-03T03:32:20.977Z,14.13
2018-08-03T03:34:48.382Z,14.40
2018-08-03T03:37:15.712Z,20.40
2018-08-03T03:39:43.082Z,16.73
2018-08-03T03:42:10.397Z,18.13
2018-08-03T03:44:38.330Z,18.33
2018-08-03T03:47:05.665Z,17.60
2018-08-03T03:49:33.037Z,16.70
2018-08-03T03:52:00.400Z,15.60
2018-08-03T03:54:27.801Z,17.07
2018-08-03T03:56:55.323Z,18.73
2018-08-03T03:59:22.893Z,16.37
2018-08-03T04:01:50.272Z,15.33
2018-08-03T04:04:17.662Z,16.83
2018-08-03T04:06:45.083Z,17.10
2018-08-03T04:09:13.208Z,18.03
2018-08-03T04:11:41.098Z,19.60
2018-08-03T04:14:08.680Z,21.47
2018-08-03T04:16:40.011Z,18.67
2018-08-03T04:19:07.534Z,22.67
2018-08-03T04:21:34.956Z,21.30
2018-08-03T04:24:02.271Z,21.77
2018-08-03T04:26:29.926Z,19.07
2018-08-03T04:28:57.466Z,17.00
2018-08-03T04:31:24.822Z,18.37
2018-08-03T04:33:52.217Z,22.73
2018-08-03T04:36:19.720Z,21.57
2018-08-03T04:38:47.325Z,24.17
2018-08-03T04:41:14.743Z,21.77
2018-08-03T04:43:42.067Z,24.50
2018-08-03T04:46:09.482Z,19.17
2018-08-03T04:48:36.961Z,19.93
2018-08-03T04:51:04.403Z,17.57
2018-08-03T04:53:31.922Z,19.70
2018-08-03T04:55:59.283Z,16.90
2018-08-03T04:58:26.810Z,15.97
2018-08-03T05:00:54.732Z,15.00
2018-08-03T05:03:22.202Z,16.93
2018-08-03T05:05:49.671Z,17.97
2018-08-03T05:08:17.079Z,16.60
2018-08-03T05:10:44.741Z,16.10
2018-08-03T05:13:12.114Z,16.83
2018-08-03T05:15:40.111Z,17.27
2018-08-03T05:18:07.895Z,16.50
2018-08-03T05:20:35.334Z,17.53
2018-08-03T05:23:02.892Z,16.73
2018-08-03T05:25:30.315Z,17.30
2018-08-03T05:27:57.694Z,18.07
2018-08-03T05:30:25.245Z,17.57
2018-08-03T05:33:05.991Z,18.27
2018-08-03T05:35:33.446Z,16.00
2018-08-03T05:38:00.785Z,17.97
2018-08-03T05:40:28.175Z,18.50
2018-08-03T05:42:55.667Z,16.50
2018-08-03T05:45:22.985Z,17.57
2018-08-03T05:47:50.379Z,19.40
2018-08-03T05:50:17.854Z,17.17
2018-08-03T05:52:45.250Z,17.77
2018-08-03T05:55:12.861Z,18.42
2018-08-03T05:57:40.351Z,18.25
2018-08-03T06:00:07.770Z,18.40
2018-08-03T06:02:35.227Z,18.02
2018-08-03T06:05:02.612Z,17.87
2018-08-03T06:07:30.015Z,18.77
2018-08-03T06:09:57.379Z,17.73
2018-08-03T06:12:24.757Z,18.07
2018-08-03T06:14:52.236Z,18.85
2018-08-03T06:17:19.776Z,19.20
2018-08-03T06:19:47.122Z,19.30
2018-08-03T06:22:14.517Z,19.17
2018-08-03T06:24:43.053Z,19.52
2018-08-03T06:27:10.407Z,20.20
2018-08-03T06:29:37.827Z,18.50
2018-08-03T06:32:05.144Z,18.35
2018-08-03T06:34:32.465Z,17.20
2018-08-03T06:36:59.811Z,17.98
2018-08-03T06:39:27.138Z,18.05
2018-08-03T06:41:54.508Z,16.60
2018-08-03T06:44:21.855Z,17.37
2018-08-03T06:46:49.230Z,15.45
2018-08-03T06:49:16.563Z,14.60
2018-08-03T06:51:43.915Z,17.07
2018-08-03T06:54:11.299Z,16.87
2018-08-03T06:56:39.490Z,17.92
2018-08-03T06:59:07.059Z,17.30
2018-08-03T07:01:34.452Z,15.15
2018-08-03T07:04:02.115Z,16.90
2018-08-03T07:06:29.545Z,14.73
2018-08-03T07:08:58.304Z,21.65
2018-08-03T07:11:25.683Z,11.65
2018-08-03T07:13:53.366Z,12.88
2018-08-03T07:16:21.174Z,11.80
2018-08-03T07:18:49.041Z,10.40
2018-08-03T07:21:22.848Z,11.63
2018-08-03T07:23:50.357Z,13.78
2018-08-03T07:26:17.755Z,11.85
2018-08-03T07:28:45.152Z,9.40
2018-08-03T07:31:12.520Z,9.40
2018-08-03T07:33:39.962Z,13.03
2018-08-03T07:36:07.680Z,10.55
2018-08-03T07:38:35.296Z,9.50
2018-08-03T07:41:03.656Z,8.10
2018-08-03T07:43:31.415Z,7.62
2018-08-03T07:45:58.986Z,9.25
2018-08-03T07:48:26.672Z,9.18
2018-08-03T07:50:54.464Z,8.73
2018-08-03T07:53:21.844Z,8.00
2018-08-03T07:56:19.767Z,7.90
2018-08-03T07:58:47.187Z,10.75
2018-08-03T08:01:14.497Z,8.48
2018-08-03T08:03:41.858Z,6.40
2018-08-03T08:06:09.256Z,6.25
2018-08-03T08:08:36.680Z,13.75
2018-08-03T08:11:04.104Z,6.97
2018-08-03T08:13:31.497Z,6.37
2018-08-03T08:15:58.889Z,7.40
2018-08-03T08:18:26.302Z,9.10
2018-08-03T08:20:53.697Z,6.75
2018-08-03T08:23:21.059Z,9.53
2018-08-03T08:25:48.475Z,10.30
2018-08-03T08:28:16.375Z,7.15
2018-08-03T08:33:17.653Z,6.67
2018-08-03T08:35:44.951Z,7.35
2018-08-03T08:38:12.540Z,11.03
2018-08-03T08:40:39.975Z,7.70
2018-08-03T08:43:07.412Z,5.40
2018-08-03T08:45:34.864Z,5.55
2018-08-03T08:48:02.399Z,7.37
2018-08-03T08:50:29.738Z,8.93
2018-08-03T08:52:57.480Z,5.85
2018-08-03T08:55:24.849Z,7.30
2018-08-03T08:57:52.461Z,6.40
2018-08-03T09:00:19.888Z,6.50
2018-08-03T09:02:47.292Z,7.42
2018-08-03T09:05:14.698Z,7.00
2018-08-03T09:07:42.256Z,8.85
2018-08-03T09:10:10.055Z,6.95
2018-08-03T09:12:38.825Z,6.62
2018-08-03T09:15:06.531Z,9.25
2018-08-03T09:17:34.773Z,7.42
2018-08-03T09:20:02.438Z,6.60
2018-08-03T09:22:29.930Z,7.37
2018-08-03T09:24:57.325Z,7.08
2018-08-03T09:27:24.771Z,7.33
2018-08-03T09:29:52.213Z,10.23
2018-08-03T09:32:19.578Z,9.18
2018-08-03T09:34:47.122Z,7.37
2018-08-03T09:37:14.551Z,8.30
2018-08-03T09:39:41.915Z,7.80
2018-08-03T09:42:09.268Z,8.20
2018-08-03T09:44:36.708Z,11.85
2018-08-03T09:47:04.074Z,8.75
2018-08-03T09:49:31.642Z,7.72
2018-08-03T09:51:59.043Z,9.63
2018-08-03T09:54:26.455Z,9.25
2018-08-03T09:56:53.888Z,7.87
2018-08-03T09:59:22.012Z,9.80
2018-08-03T10:01:49.486Z,9.93
2018-08-03T10:04:16.802Z,11.90
2018-08-03T10:06:44.132Z,10.82
2018-08-03T10:09:11.554Z,11.65
2018-08-03T10:11:39.060Z,16.42
2018-08-03T10:14:06.416Z,10.95
2018-08-03T10:16:33.803Z,10.18
2018-08-03T10:19:01.193Z,10.18
2018-08-03T10:21:28.572Z,9.25
2018-08-03T10:23:55.956Z,9.58
2018-08-03T10:26:23.419Z,8.88
2018-08-03T10:28:50.975Z,9.15
2018-08-03T10:31:18.321Z,8.95
2018-08-03T10:33:46.220Z,9.13
2018-08-03T10:36:13.096Z,9.83
2018-08-03T10:38:40.518Z,9.25
2018-08-03T10:41:07.951Z,11.97
2018-08-03T10:43:35.298Z,11.05
2018-08-03T10:46:02.711Z,12.80
2018-08-03T10:48:30.027Z,11.00
2018-08-03T10:50:57.471Z,11.73
2018-08-03T10:53:24.818Z,11.22
2018-08-03T10:55:58.935Z,11.60
2018-08-03T10:58:26.570Z,12.07
2018-08-03T11:00:53.979Z,11.63
2018-08-03T11:03:21.348Z,12.50
2018-08-03T11:05:48.774Z,11.43
2018-08-03T11:08:16.191Z,11.18
2018-08-03T11:10:43.741Z,10.50
2018-08-03T11:13:11.113Z,10.85
2018-08-03T11:15:38.706Z,10.48
2018-08-03T11:18:06.325Z,12.07
2018-08-03T11:20:34.569Z,14.13
2018-08-03T11:23:01.923Z,11.60
2018-08-03T11:25:29.420Z,12.65
2018-08-03T11:27:56.791Z,11.93
2018-08-03T11:30:29.247Z,11.85
2018-08-03T11:33:01.740Z,12.70
2018-08-03T11:35:34.034Z,11.12
2018-08-03T11:38:16.339Z,11.55
2018-08-03T11:40:52.010Z,11.38
2018-08-03T11:43:36.734Z,10.85
2018-08-03T11:46:07.527Z,13.20
2018-08-03T11:48:38.629Z,11.10
2018-08-03T11:51:18.321Z,11.55
2018-08-03T11:53:54.536Z,12.07
2018-08-03T11:56:37.599Z,11.63
2018-08-03T11:59:09.098Z,11.50
2018-08-03T12:01:43.702Z,12.28
2018-08-03T12:04:21.795Z,11.50
2018-08-03T12:06:55.188Z,11.60
2018-08-03T12:09:34.220Z,11.75
2018-08-03T12:12:07.676Z,11.70
2018-08-03T12:14:47.407Z,9.95
2018-08-03T12:17:20.007Z,11.28
2018-08-03T12:19:52.843Z,11.75
2018-08-03T12:22:33.146Z,13.35
2018-08-03T12:25:03.845Z,10.70
2018-08-03T12:27:31.513Z,13.22
2018-08-03T12:29:59.064Z,11.22
2018-08-03T12:32:26.460Z,10.90
2018-08-03T12:34:53.884Z,11.38
2018-08-03T12:37:21.246Z,10.98
2018-08-03T12:39:48.623Z,10.13
2018-08-03T12:42:16.094Z,11.93
2018-08-03T12:44:57.469Z,10.95
2018-08-03T12:47:24.818Z,11.45
2018-08-03T12:49:52.201Z,10.95
2018-08-03T12:52:19.623Z,15.70
2018-08-03T12:54:47.015Z,10.95
2018-08-03T12:57:14.472Z,11.70
2018-08-03T12:59:41.920Z,12.28
2018-08-03T13:02:09.459Z,13.50
2018-08-03T13:04:36.939Z,13.00
2018-08-03T13:07:04.387Z,12.53
2018-08-03T13:09:31.835Z,11.60
2018-08-03T13:11:59.268Z,11.18
2018-08-03T13:14:26.775Z,11.95
2018-08-03T13:16:54.230Z,13.58
2018-08-03T13:19:21.747Z,10.95
2018-08-03T13:21:49.252Z,11.93
2018-08-03T13:24:16.702Z,11.25
2018-08-03T13:26:44.206Z,12.40
2018-08-03T13:29:11.620Z,11.55
2018-08-03T13:31:39.142Z,10.18
2018-08-03T13:34:06.705Z,11.40
2018-08-03T13:36:34.501Z,11.22
2018-08-03T13:39:02.115Z,11.20
2018-08-03T13:41:29.631Z,11.57
2018-08-03T13:43:57.063Z,11.70
2018-08-03T13:46:24.764Z,11.68
2018-08-03T13:48:52.285Z,12.00
2018-08-03T13:51:19.993Z,16.17
2018-08-03T13:53:47.863Z,12.43
2018-08-03T13:56:15.946Z,11.55
2018-08-03T13:58:44.147Z,11.73
2018-08-03T14:01:22.920Z,10.90
2018-08-03T14:03:50.570Z,11.85
2018-08-03T14:06:18.357Z,11.83
2018-08-03T14:08:46.689Z,12.00
2018-08-03T14:11:14.930Z,16.48
2018-08-03T14:13:42.356Z,15.18
2018-08-03T14:16:09.923Z,12.07
2018-08-03T14:18:37.562Z,12.98
2018-08-03T14:21:05.008Z,11.45
2018-08-03T14:23:32.408Z,12.35
2018-08-03T14:25:59.763Z,14.98
2018-08-03T14:28:27.154Z,15.08
2018-08-03T14:30:54.504Z,12.58
2018-08-03T14:33:21.865Z,11.80
2018-08-03T14:35:49.261Z,12.45
2018-08-03T14:38:16.726Z,12.28
2018-08-03T14:40:44.068Z,11.30
2018-08-03T14:43:11.532Z,12.68
2018-08-03T14:45:38.884Z,11.57
2018-08-03T14:48:06.298Z,11.20
2018-08-03T14:50:33.713Z,11.28
2018-08-03T14:53:01.160Z,11.97
2018-08-03T14:55:28.889Z,13.10
2018-08-03T14:57:56.477Z,11.90
2018-08-03T15:00:23.939Z,12.47
2018-08-03T15:02:51.369Z,15.13
2018-08-03T15:05:18.864Z,11.68
2018-08-03T15:07:46.349Z,11.00
2018-08-03T15:10:13.821Z,14.18
2018-08-03T15:12:41.337Z,12.98
2018-08-03T15:15:08.825Z,11.03
2018-08-03T15:17:36.700Z,10.65
2018-08-03T15:20:05.221Z,11.57
2018-08-03T15:22:32.618Z,11.03
2018-08-03T15:25:00.131Z,10.63
2018-08-03T15:49:58.467Z,10.60
2018-08-03T15:52:25.888Z,10.03
2018-08-03T15:54:53.428Z,10.43
2018-08-03T15:57:20.875Z,9.40
2018-08-03T15:59:48.282Z,11.95
2018-08-03T16:02:15.696Z,10.00
2018-08-03T16:04:43.070Z,8.88
2018-08-03T16:07:10.510Z,9.10
2018-08-03T16:09:37.990Z,9.63
2018-08-03T16:12:06.066Z,10.95
2018-08-03T16:14:33.551Z,9.65
2018-08-03T16:17:00.919Z,11.65
2018-08-03T16:19:28.359Z,10.58
2018-08-03T16:21:55.951Z,8.90
2018-08-03T16:24:23.405Z,9.98
2018-08-03T16:26:50.802Z,10.75
2018-08-03T16:29:18.449Z,9.18
2018-08-03T16:31:45.819Z,10.23
2018-08-03T16:34:14.429Z,9.70
2018-08-03T16:36:41.841Z,9.35
2018-08-03T16:39:10.261Z,9.83
2018-08-03T16:41:37.987Z,10.85
2018-08-03T16:44:05.318Z,10.95
2018-08-03T16:46:32.747Z,9.40
2018-08-03T16:49:00.196Z,13.65
2018-08-03T16:51:27.624Z,9.03
2018-08-03T16:53:54.946Z,9.25
2018-08-03T16:56:22.379Z,26.87
2018-08-03T16:58:49.874Z,12.03
2018-08-03T17:01:18.087Z,15.72
2018-08-03T17:03:45.555Z,9.93
2018-08-03T17:06:12.948Z,10.18
2018-08-03T17:08:40.998Z,15.20
2018-08-03T17:11:08.405Z,10.40
2018-08-03T17:13:35.797Z,11.03
2018-08-03T17:16:03.190Z,10.65
2018-08-03T17:18:30.572Z,9.63
2018-08-03T17:20:57.906Z,9.73
2018-08-03T17:23:25.254Z,12.03
2018-08-03T17:25:52.645Z,11.43
2018-08-03T17:28:20.059Z,9.08
2018-08-03T17:30:47.417Z,10.78
2018-08-03T17:33:14.847Z,8.85
2018-08-03T17:35:42.174Z,9.90
2018-08-03T17:38:09.622Z,10.30
2018-08-03T17:40:37.110Z,16.97
2018-08-03T17:43:10.147Z,11.40
2018-08-03T17:45:47.146Z,11.40
2018-08-03T17:48:19.428Z,12.63
2018-08-03T17:50:46.904Z,13.60
2018-08-03T17:53:14.351Z,9.35
2018-08-03T17:55:41.990Z,12.53
2018-08-03T17:58:10.488Z,12.43
2018-08-03T18:00:38.004Z,12.20
2018-08-03T18:03:05.512Z,15.98
2018-08-03T18:05:33.040Z,11.75
2018-08-03T18:08:02.655Z,11.38
2018-08-03T18:10:33.225Z,16.00
2018-08-03T18:13:05.844Z,11.55
2018-08-03T18:15:43.136Z,14.75
2018-08-03T18:18:11.543Z,14.25
2018-08-03T18:20:38.979Z,16.95
2018-08-03T18:23:06.356Z,19.55
2018-08-03T18:25:33.873Z,19.90
2018-08-03T18:28:01.402Z,15.40
2018-08-03T18:30:28.956Z,10.45
2018-08-03T18:32:56.420Z,11.70
2018-08-03T18:35:23.858Z,9.65
2018-08-03T18:37:51.430Z,11.48
2018-08-03T18:40:18.885Z,10.70
2018-08-03T18:42:46.253Z,9.93
2018-08-03T18:45:13.899Z,10.98
2018-08-03T18:47:41.699Z,14.43
2018-08-03T18:50:09.078Z,9.73
2018-08-03T18:52:38.474Z,11.05
2018-08-03T18:55:07.332Z,10.72
2018-08-03T18:57:36.158Z,10.00
2018-08-03T19:00:09.035Z,10.38
2018-08-03T19:02:36.846Z,11.38
2018-08-03T19:05:05.437Z,12.00
2018-08-03T19:07:34.589Z,10.85
2018-08-03T19:10:03.171Z,13.53
2018-08-03T19:12:32.735Z,14.05
2018-08-03T19:15:01.748Z,10.50
2018-08-03T19:17:29.609Z,9.93
2018-08-03T19:19:57.477Z,9.73
2018-08-03T19:22:25.161Z,10.93
2018-08-03T19:24:54.114Z,15.93
2018-08-03T19:27:21.834Z,10.08
2018-08-03T19:29:49.836Z,15.58
2018-08-03T19:32:17.900Z,10.82
2018-08-03T19:35:01.138Z,9.48
2018-08-03T19:37:39.958Z,11.14
2018-08-03T19:40:24.558Z,8.95
2018-08-03T19:43:08.428Z,14.45
2018-08-03T19:45:36.641Z,9.43
2018-08-03T19:48:07.257Z,9.33
2018-08-03T19:50:36.137Z,9.58
2018-08-03T19:53:03.682Z,9.65
2018-08-03T19:55:31.726Z,9.50
2018-08-03T19:57:59.751Z,11.95
2018-08-03T20:00:37.006Z,10.20
2018-08-03T20:03:16.305Z,9.83
2018-08-03T20:05:45.308Z,10.82
2018-08-03T20:08:13.190Z,10.08
2018-08-03T20:10:41.088Z,11.63
2018-08-03T20:13:08.791Z,9.48
2018-08-03T20:15:36.288Z,11.63
2018-08-03T20:18:05.201Z,10.40
2018-08-03T20:20:33.812Z,9.45
2018-08-03T20:23:02.465Z,9.75
2018-08-03T20:25:36.585Z,11.60
2018-08-03T20:28:06.188Z,9.93
2018-08-03T20:30:34.205Z,10.63
2018-08-03T20:33:01.836Z,14.55
2018-08-03T20:35:30.407Z,9.98
2018-08-03T20:37:59.113Z,10.58
2018-08-03T20:40:26.772Z,10.18
2018-08-03T20:42:54.754Z,10.53
2018-08-03T20:45:22.471Z,15.18
2018-08-03T20:47:49.746Z,12.40
2018-08-03T20:50:17.023Z,11.60
2018-08-03T20:52:44.303Z,9.05
2018-08-03T20:55:11.566Z,12.07
2018-08-03T20:57:39.847Z,9.45
2018-08-03T21:00:07.125Z,10.25
2018-08-03T21:02:34.418Z,11.18
2018-08-03T21:05:01.717Z,11.05
2018-08-03T21:07:28.973Z,9.98
2018-08-03T21:09:56.235Z,11.05
2018-08-03T21:12:23.632Z,11.73
2018-08-03T21:14:50.906Z,9.85
2018-08-03T21:17:18.192Z,9.33
2018-08-03T21:19:45.440Z,9.43
2018-08-03T21:22:12.729Z,12.03
2018-08-03T21:24:40.008Z,10.78
2018-08-03T21:27:07.264Z,10.72
2018-08-03T21:29:34.497Z,9.53
2018-08-03T21:32:01.776Z,12.23
2018-08-03T21:34:29.022Z,10.20
2018-08-03T21:36:56.266Z,11.93
2018-08-03T21:39:23.491Z,9.60
2018-08-03T21:41:50.752Z,12.35
2018-08-03T21:44:18.021Z,9.45
2018-08-03T21:46:45.372Z,9.28
2018-08-03T21:49:12.603Z,9.98
2018-08-03T21:51:39.871Z,10.57
2018-08-03T21:54:07.113Z,9.65
2018-08-03T21:56:34.428Z,16.27
2018-08-03T21:59:01.900Z,22.02
2018-08-03T22:01:29.242Z,10.13
2018-08-03T22:03:56.533Z,12.05
2018-08-03T22:06:23.794Z,11.27
2018-08-03T22:08:51.091Z,11.05
2018-08-03T22:11:18.421Z,9.63
2018-08-03T22:13:45.694Z,10.48
2018-08-03T22:16:13.004Z,9.93
2018-08-03T22:18:40.297Z,9.70
2018-08-03T22:21:07.558Z,12.20
2018-08-03T22:23:34.838Z,10.88
2018-08-03T22:26:02.090Z,12.15
2018-08-03T22:28:29.391Z,12.75
2018-08-03T22:30:56.664Z,11.85
2018-08-03T22:33:23.934Z,10.72
2018-08-03T22:35:51.229Z,9.73
2018-08-03T22:38:18.543Z,10.28
2018-08-03T22:40:45.817Z,10.43
2018-08-03T22:43:13.098Z,9.78
2018-08-03T22:45:40.441Z,10.40
2018-08-03T22:48:07.726Z,11.10
2018-08-03T22:50:35.078Z,11.15
2018-08-03T22:53:02.426Z,11.63
2018-08-03T22:55:29.678Z,14.23
2018-08-03T22:57:56.954Z,10.17
2018-08-03T23:00:24.215Z,11.23
2018-08-03T23:02:51.504Z,10.58
2018-08-03T23:05:18.754Z,9.93
2018-08-03T23:07:46.018Z,14.80
2018-08-03T23:10:13.306Z,11.87
2018-08-03T23:12:40.592Z,11.07
2018-08-03T23:15:07.914Z,11.17
2018-08-03T23:17:35.191Z,13.80
2018-08-03T23:20:02.546Z,10.13
2018-08-03T23:22:29.854Z,10.73
2018-08-03T23:24:57.171Z,10.53
2018-08-03T23:27:24.486Z,10.33
2018-08-03T23:29:51.770Z,10.90
2018-08-03T23:32:19.055Z,10.67
2018-08-03T23:34:46.356Z,11.23
2018-08-03T23:37:13.638Z,10.20
2018-08-03T23:39:40.888Z,12.23
2018-08-03T23:42:08.171Z,10.03
2018-08-03T23:44:35.446Z,9.63
2018-08-03T23:47:02.762Z,11.57
2018-08-03T23:49:30.018Z,10.40
2018-08-03T23:51:57.291Z,10.67
2018-08-03T23:54:24.565Z,11.10
2018-08-03T23:56:51.805Z,8.87
2018-08-03T23:59:19.104Z,9.53
